Terminal Aerodrome Forecast
Issued by NWS

Home | Current Version | Previous Version | Text Only | Print | Product List | Glossary On
Versions: 1 2 3 4 5 6 7 8 9 10 11 12 13 14 15 16 17 18 19 20 21 22 23 24
000
FTUS46 KSEW 280807 AAA
TAFSEA
TAF AMD
KSEA 280807Z 2808/2912 21010KT P6SM SCT020 OVC040
      TEMPO 2808/2812 OVC020
     FM281200 19011KT P6SM OVC030
      TEMPO 2815/2819 -RA
     FM281900 19012KT P6SM BKN030 OVC050
      TEMPO 2819/2822 -RA
     FM282200 19013G22KT P6SM VCSH BKN035 OVC050
     FM290500 20010KT P6SM OVC035=

USA.gov is the U.S. government's official web portal to all federal, state and local government web resources and services.